createdAt,value
2019-02-08T00:00:27.116Z,3.76
2019-02-08T00:01:27.081Z,3.86
2019-02-08T00:02:27.065Z,3.76
2019-02-08T00:03:27.032Z,3.78
2019-02-08T00:04:27.015Z,3.72
2019-02-08T00:05:26.991Z,3.78
2019-02-08T00:06:26.962Z,3.94
2019-02-08T00:07:26.958Z,3.96
2019-02-08T00:08:26.921Z,3.86
2019-02-08T00:09:26.901Z,3.88
2019-02-08T00:10:26.870Z,3.83
2019-02-08T00:11:26.845Z,3.79
2019-02-08T00:12:26.831Z,3.84
2019-02-08T00:13:26.803Z,3.75
2019-02-08T00:14:26.792Z,3.87
2019-02-08T00:15:26.749Z,3.80
2019-02-08T00:16:26.732Z,3.91
2019-02-08T00:17:26.711Z,3.94
2019-02-08T00:18:26.678Z,3.88
2019-02-08T00:19:26.654Z,3.87
2019-02-08T00:20:26.634Z,3.91
2019-02-08T00:21:26.615Z,3.90
2019-02-08T00:22:26.588Z,3.96
2019-02-08T00:23:27.545Z,3.86
2019-02-08T00:24:26.538Z,3.87
2019-02-08T00:25:26.522Z,3.93
2019-02-08T00:26:26.500Z,3.87
2019-02-08T00:27:26.470Z,3.91
2019-02-08T00:28:26.453Z,3.87
2019-02-08T00:29:26.435Z,3.91
2019-02-08T00:30:26.404Z,3.86
2019-02-08T00:31:26.377Z,3.88
2019-02-08T00:32:26.355Z,3.98
2019-02-08T00:33:26.330Z,3.86
2019-02-08T00:34:26.306Z,3.87
2019-02-08T00:35:26.284Z,3.80
2019-02-08T00:36:26.260Z,3.83
2019-02-08T00:37:26.235Z,3.93
2019-02-08T00:38:26.214Z,3.90
2019-02-08T00:39:26.198Z,3.91
2019-02-08T00:40:26.166Z,3.80
2019-02-08T00:41:26.142Z,3.83
2019-02-08T00:42:26.117Z,3.87
2019-02-08T00:43:26.095Z,3.84
2019-02-08T00:44:26.073Z,3.84
2019-02-08T00:45:26.050Z,3.87
2019-02-08T00:46:26.028Z,3.88
2019-02-08T00:47:26.001Z,3.91
2019-02-08T00:48:25.980Z,3.80
2019-02-08T00:49:25.958Z,3.91
2019-02-08T00:50:25.936Z,3.88
2019-02-08T00:51:25.909Z,3.90
2019-02-08T00:52:25.882Z,3.83
2019-02-08T00:53:25.858Z,3.79
2019-02-08T00:54:25.839Z,3.97
2019-02-08T00:55:25.821Z,3.86
2019-02-08T00:56:25.792Z,3.79
2019-02-08T00:57:25.762Z,3.83
2019-02-08T00:58:25.744Z,3.78
2019-02-08T00:59:25.720Z,3.88
2019-02-08T01:00:25.713Z,3.88
2019-02-08T01:01:25.680Z,3.73
2019-02-08T01:02:25.648Z,3.91
2019-02-08T01:03:25.625Z,3.79
2019-02-08T01:04:25.603Z,3.83
2019-02-08T01:05:25.577Z,3.86
2019-02-08T01:06:25.553Z,3.87
2019-02-08T01:07:25.532Z,3.83
2019-02-08T01:08:25.508Z,3.87
2019-02-08T01:09:25.500Z,3.91
2019-02-08T01:10:25.459Z,3.86
2019-02-08T01:11:25.438Z,3.84
2019-02-08T01:12:25.415Z,3.83
2019-02-08T01:13:25.389Z,3.96
2019-02-08T01:14:25.369Z,3.79
2019-02-08T01:15:25.345Z,3.86
2019-02-08T01:16:25.320Z,3.83
2019-02-08T01:17:25.296Z,3.88
2019-02-08T01:18:25.270Z,3.80
2019-02-08T01:19:25.246Z,3.84
2019-02-08T01:20:25.224Z,3.76
2019-02-08T01:21:25.201Z,3.84
2019-02-08T01:22:25.181Z,3.94
2019-02-08T01:23:25.158Z,3.91
2019-02-08T01:24:25.129Z,3.91
2019-02-08T01:25:25.110Z,3.93
2019-02-08T01:26:25.086Z,3.76
2019-02-08T01:27:25.063Z,3.78
2019-02-08T01:28:25.034Z,3.84
2019-02-08T01:29:25.011Z,3.90
2019-02-08T01:30:24.990Z,3.84
2019-02-08T01:31:24.963Z,3.80
2019-02-08T01:32:24.944Z,3.87
2019-02-08T01:33:24.923Z,3.87
2019-02-08T01:34:24.905Z,3.80
2019-02-08T01:35:24.874Z,3.83
2019-02-08T01:36:24.847Z,3.78
2019-02-08T01:37:24.829Z,3.75
2019-02-08T01:38:24.803Z,3.75
2019-02-08T01:39:24.791Z,3.70
2019-02-08T01:40:24.761Z,3.72
2019-02-08T01:41:24.733Z,3.72
2019-02-08T01:42:24.709Z,3.80
2019-02-08T01:43:24.689Z,3.79
2019-02-08T01:44:24.660Z,3.80
2019-02-08T01:45:24.635Z,3.84
2019-02-08T01:46:24.615Z,3.80
2019-02-08T01:47:24.588Z,3.69
2019-02-08T01:48:24.565Z,3.75
2019-02-08T01:49:24.545Z,3.61
2019-02-08T01:50:24.522Z,3.70
2019-02-08T01:51:24.493Z,3.72
2019-02-08T01:52:24.471Z,3.79
2019-02-08T01:53:24.447Z,3.76
2019-02-08T01:54:24.423Z,3.69
2019-02-08T01:55:24.399Z,3.72
2019-02-08T01:56:24.383Z,3.72
2019-02-08T01:57:24.354Z,3.75
2019-02-08T01:58:24.331Z,3.80
2019-02-08T01:59:24.309Z,3.80
2019-02-08T02:00:24.283Z,3.83
2019-02-08T02:01:24.263Z,3.83
2019-02-08T02:02:24.239Z,3.79
2019-02-08T02:03:24.222Z,3.80
2019-02-08T02:04:24.185Z,3.93
2019-02-08T02:05:24.163Z,3.91
2019-02-08T02:06:24.147Z,3.91
2019-02-08T02:07:24.119Z,3.91
2019-02-08T02:08:24.095Z,3.84
2019-02-08T02:09:24.073Z,3.91
2019-02-08T02:10:24.044Z,3.87
2019-02-08T02:11:24.023Z,3.83
2019-02-08T02:12:23.998Z,3.94
2019-02-08T02:13:23.979Z,3.90
2019-02-08T02:14:23.956Z,3.91
2019-02-08T02:15:23.929Z,3.83
2019-02-08T02:16:23.907Z,3.78
2019-02-08T02:17:23.886Z,3.88
2019-02-08T02:18:23.860Z,3.78
2019-02-08T02:19:23.833Z,3.83
2019-02-08T02:20:23.812Z,3.88
2019-02-08T02:21:23.787Z,3.90
2019-02-08T02:22:23.763Z,3.91
2019-02-08T02:23:23.769Z,3.91
2019-02-08T02:24:23.723Z,3.76
2019-02-08T02:25:23.698Z,3.86
2019-02-08T02:26:23.672Z,3.84
2019-02-08T02:27:23.645Z,3.86
2019-02-08T02:28:23.627Z,3.86
2019-02-08T02:29:23.602Z,3.83
2019-02-08T02:30:23.610Z,3.84
2019-02-08T02:31:23.554Z,3.80
2019-02-08T02:32:23.537Z,3.80
2019-02-08T02:33:23.504Z,3.73
2019-02-08T02:34:23.479Z,3.65
2019-02-08T02:35:23.457Z,3.70
2019-02-08T02:36:23.439Z,3.69
2019-02-08T02:37:23.414Z,3.73
2019-02-08T02:38:23.386Z,3.65
2019-02-08T02:39:23.361Z,3.62
2019-02-08T02:40:23.341Z,3.65
2019-02-08T02:41:23.322Z,3.58
2019-02-08T02:42:23.294Z,3.55
2019-02-08T02:43:23.271Z,3.54
2019-02-08T02:44:23.244Z,3.47
2019-02-08T02:45:23.251Z,3.48
2019-02-08T02:46:23.202Z,3.42
2019-02-08T02:47:23.180Z,3.45
2019-02-08T02:48:23.150Z,3.45
2019-02-08T02:49:23.130Z,3.48
2019-02-08T02:50:23.106Z,3.52
2019-02-08T02:51:23.086Z,3.61
2019-02-08T02:52:23.056Z,3.55
2019-02-08T02:53:23.030Z,3.57
2019-02-08T02:54:23.006Z,3.58
2019-02-08T02:55:22.987Z,3.58
2019-02-08T02:56:22.962Z,3.55
2019-02-08T02:57:22.940Z,3.57
2019-02-08T02:58:22.915Z,3.57
2019-02-08T02:59:22.890Z,3.57
2019-02-08T03:00:22.869Z,3.45
2019-02-08T03:01:22.846Z,3.35
2019-02-08T03:02:22.824Z,3.43
2019-02-08T03:03:22.796Z,3.50
2019-02-08T03:04:22.775Z,3.40
2019-02-08T03:05:22.752Z,3.40
2019-02-08T03:06:22.730Z,3.42
2019-02-08T03:07:22.700Z,3.36
2019-02-08T03:08:22.676Z,3.40
2019-02-08T03:09:22.654Z,3.32
2019-02-08T03:10:22.633Z,3.36
2019-02-08T03:11:22.606Z,3.40
2019-02-08T03:12:22.586Z,3.36
2019-02-08T03:13:22.563Z,3.32
2019-02-08T03:14:22.546Z,3.40
2019-02-08T03:15:22.512Z,3.39
2019-02-08T03:16:22.489Z,3.40
2019-02-08T03:17:22.469Z,3.35
2019-02-08T03:18:22.445Z,3.32
2019-02-08T03:19:22.419Z,3.26
2019-02-08T03:20:22.399Z,3.40
2019-02-08T03:21:22.375Z,3.35
2019-02-08T03:22:22.350Z,3.40
2019-02-08T03:23:22.323Z,3.39
2019-02-08T03:24:22.302Z,3.31
2019-02-08T03:25:22.271Z,3.36
2019-02-08T03:26:22.252Z,3.39
2019-02-08T03:27:22.227Z,3.36
2019-02-08T03:28:22.209Z,3.39
2019-02-08T03:29:22.187Z,3.23
2019-02-08T03:30:22.157Z,3.31
2019-02-08T03:31:22.153Z,3.28
2019-02-08T03:32:22.113Z,3.21
2019-02-08T03:33:22.099Z,3.32
2019-02-08T03:34:22.067Z,3.20
2019-02-08T03:35:22.041Z,3.06
2019-02-08T03:36:22.014Z,3.11
2019-02-08T03:37:21.990Z,3.15
2019-02-08T03:38:21.965Z,3.10
2019-02-08T03:39:21.944Z,3.03
2019-02-08T03:40:21.925Z,3.03
2019-02-08T03:41:21.898Z,3.02
2019-02-08T03:42:21.871Z,3.02
2019-02-08T03:43:21.860Z,2.96
2019-02-08T03:44:21.828Z,3.06
2019-02-08T03:45:21.804Z,3.05
2019-02-08T03:46:21.781Z,3.17
2019-02-08T03:47:21.757Z,3.21
2019-02-08T03:48:21.733Z,3.14
2019-02-08T03:49:21.712Z,3.11
2019-02-08T03:50:21.687Z,3.05
2019-02-08T03:51:21.662Z,2.99
2019-02-08T03:52:21.643Z,3.02
2019-02-08T03:53:21.613Z,3.10
2019-02-08T03:54:21.607Z,3.05
2019-02-08T03:55:21.568Z,3.02
2019-02-08T03:56:21.544Z,3.08
2019-02-08T03:57:21.525Z,3.05
2019-02-08T03:58:21.495Z,3.06
2019-02-08T03:59:21.480Z,2.97
2019-02-08T04:00:21.445Z,2.99
2019-02-08T04:01:21.428Z,2.96
2019-02-08T04:02:21.402Z,2.82
2019-02-08T04:03:21.377Z,2.84
2019-02-08T04:04:21.353Z,2.99
2019-02-08T04:05:21.327Z,2.84
2019-02-08T04:06:21.308Z,2.97
2019-02-08T04:07:21.283Z,2.95
2019-02-08T04:08:21.261Z,2.95
2019-02-08T04:09:21.234Z,2.99
2019-02-08T04:10:21.215Z,2.90
2019-02-08T04:11:21.186Z,2.85
2019-02-08T04:12:21.165Z,2.89
2019-02-08T04:13:21.141Z,2.90
2019-02-08T04:14:21.121Z,2.89
2019-02-08T04:15:21.093Z,2.81
2019-02-08T04:16:21.069Z,2.79
2019-02-08T04:17:21.046Z,2.82
2019-02-08T04:18:21.030Z,2.78
2019-02-08T04:19:20.998Z,2.87
2019-02-08T04:20:20.975Z,2.81
2019-02-08T04:21:20.955Z,2.84
2019-02-08T04:22:20.925Z,2.87
2019-02-08T04:23:20.901Z,2.81
2019-02-08T04:24:29.562Z,2.92
2019-02-08T04:25:20.855Z,2.77
2019-02-08T04:26:20.832Z,2.78
2019-02-08T04:27:20.805Z,2.75
2019-02-08T04:28:20.787Z,2.72
2019-02-08T04:29:20.760Z,2.75
2019-02-08T04:30:20.744Z,2.78
2019-02-08T04:31:20.715Z,2.81
2019-02-08T04:32:20.690Z,2.78
2019-02-08T04:33:20.668Z,2.79
2019-02-08T04:34:20.645Z,2.75
2019-02-08T04:35:20.619Z,2.77
2019-02-08T04:36:20.596Z,2.72
2019-02-08T04:37:20.577Z,2.71
2019-02-08T04:38:20.552Z,2.63
2019-02-08T04:39:20.523Z,2.66
2019-02-08T04:40:20.501Z,2.72
2019-02-08T04:41:20.480Z,2.57
2019-02-08T04:42:20.450Z,2.64
2019-02-08T04:43:20.427Z,2.67
2019-02-08T04:44:20.409Z,2.66
2019-02-08T04:45:20.381Z,2.63
2019-02-08T04:46:20.362Z,2.61
2019-02-08T04:47:20.331Z,2.61
2019-02-08T04:48:20.309Z,2.59
2019-02-08T04:49:20.289Z,2.63
2019-02-08T04:50:20.278Z,2.66
2019-02-08T04:51:20.242Z,2.59
2019-02-08T04:52:20.216Z,2.69
2019-02-08T04:53:20.191Z,2.72
2019-02-08T04:54:20.175Z,2.61
2019-02-08T04:55:20.143Z,2.77
2019-02-08T04:56:20.121Z,2.66
2019-02-08T04:57:20.100Z,2.72
2019-02-08T04:58:20.074Z,2.78
2019-02-08T04:59:20.062Z,2.71
2019-02-08T05:00:20.027Z,2.79
2019-02-08T05:01:20.005Z,2.77
2019-02-08T05:02:19.980Z,2.78
2019-02-08T05:03:19.954Z,2.75
2019-02-08T05:04:19.932Z,2.63
2019-02-08T05:05:19.907Z,2.74
2019-02-08T05:06:19.883Z,2.74
2019-02-08T05:07:19.862Z,2.74
2019-02-08T05:08:19.835Z,2.75
2019-02-08T05:09:19.815Z,2.72
2019-02-08T05:10:19.792Z,2.74
2019-02-08T05:11:19.765Z,2.67
2019-02-08T05:12:19.746Z,2.67
2019-02-08T05:13:19.717Z,2.69
2019-02-08T05:14:19.693Z,2.71
2019-02-08T05:15:19.669Z,2.66
2019-02-08T05:16:19.648Z,2.59
2019-02-08T05:17:19.620Z,2.61
2019-02-08T05:18:19.597Z,2.60
2019-02-08T05:19:19.578Z,2.60
2019-02-08T05:20:19.550Z,2.66
2019-02-08T05:21:19.526Z,2.57
2019-02-08T05:22:19.504Z,2.66
2019-02-08T05:23:19.480Z,2.64
2019-02-08T05:24:19.454Z,2.63
2019-02-08T05:25:19.432Z,2.63
2019-02-08T05:26:19.409Z,2.64
2019-02-08T05:27:19.383Z,2.53
2019-02-08T05:28:19.360Z,2.52
2019-02-08T05:29:19.340Z,2.45
2019-02-08T05:30:19.315Z,2.48
2019-02-08T05:31:19.290Z,2.54
2019-02-08T05:32:19.266Z,2.53
2019-02-08T05:33:19.243Z,2.56
2019-02-08T05:34:19.223Z,2.56
2019-02-08T05:35:19.192Z,2.49
2019-02-08T05:36:19.171Z,2.49
2019-02-08T05:37:19.154Z,2.48
2019-02-08T05:38:19.122Z,2.54
2019-02-08T05:39:19.096Z,2.48
2019-02-08T05:40:19.072Z,2.49
2019-02-08T05:41:19.050Z,2.48
2019-02-08T05:42:19.023Z,2.41
2019-02-08T05:43:19.002Z,2.41
2019-02-08T05:44:18.980Z,2.34
2019-02-08T05:45:18.959Z,2.30
2019-02-08T05:46:18.930Z,2.31
2019-02-08T05:47:18.905Z,2.30
2019-02-08T05:48:18.882Z,2.31
2019-02-08T05:49:18.861Z,2.38
2019-02-08T05:50:18.838Z,2.25
2019-02-08T05:51:18.810Z,2.30
2019-02-08T05:52:18.788Z,2.24
2019-02-08T05:53:18.768Z,2.34
2019-02-08T05:54:18.747Z,2.25
2019-02-08T05:55:18.715Z,2.31
2019-02-08T05:56:18.696Z,2.41
2019-02-08T05:57:18.672Z,2.38
2019-02-08T05:58:18.646Z,2.41
2019-02-08T05:59:18.631Z,2.36
2019-02-08T06:00:18.599Z,2.35
2019-02-08T06:01:18.575Z,2.35
2019-02-08T06:02:18.550Z,2.31
2019-02-08T06:03:18.523Z,2.49
2019-02-08T06:04:18.504Z,2.39
2019-02-08T06:05:18.484Z,2.41
2019-02-08T06:06:18.457Z,2.39
2019-02-08T06:07:18.431Z,2.53
2019-02-08T06:08:18.411Z,2.53
2019-02-08T06:09:18.389Z,2.52
2019-02-08T06:10:18.363Z,2.42
2019-02-08T06:11:18.349Z,2.42
2019-02-08T06:12:18.312Z,2.42
2019-02-08T06:13:18.289Z,2.45
2019-02-08T06:14:18.270Z,2.53
2019-02-08T06:15:18.240Z,2.43
2019-02-08T06:16:18.218Z,2.41
2019-02-08T06:17:18.195Z,2.43
2019-02-08T06:18:18.170Z,2.43
2019-02-08T06:19:18.147Z,2.43
2019-02-08T06:20:18.120Z,2.41
2019-02-08T06:21:18.100Z,2.45
2019-02-08T06:22:18.069Z,2.53
2019-02-08T06:23:18.055Z,2.53
2019-02-08T06:24:18.025Z,2.52
2019-02-08T06:25:18.008Z,2.63
2019-02-08T06:26:17.979Z,2.61
2019-02-08T06:27:17.955Z,2.63
2019-02-08T06:28:17.934Z,2.60
2019-02-08T06:29:17.911Z,2.59
2019-02-08T06:30:17.921Z,2.54
2019-02-08T06:31:17.857Z,2.57
2019-02-08T06:32:17.837Z,2.54
2019-02-08T06:33:17.811Z,2.59
2019-02-08T06:34:17.789Z,2.59
2019-02-08T06:35:17.763Z,2.60
2019-02-08T06:36:17.743Z,2.56
2019-02-08T06:37:17.717Z,2.56
2019-02-08T06:38:17.693Z,2.60
2019-02-08T06:39:17.671Z,2.64
2019-02-08T06:40:17.648Z,2.59
2019-02-08T06:41:17.621Z,2.63
2019-02-08T06:42:17.600Z,2.63
2019-02-08T06:43:17.575Z,2.59
2019-02-08T06:44:17.554Z,2.71
2019-02-08T06:45:17.530Z,2.74
2019-02-08T06:46:17.503Z,2.69
2019-02-08T06:47:17.479Z,2.66
2019-02-08T06:48:17.456Z,2.61
2019-02-08T06:49:17.433Z,2.75
2019-02-08T06:50:17.410Z,2.77
2019-02-08T06:51:17.433Z,2.81
2019-02-08T06:52:17.366Z,2.81
2019-02-08T06:53:17.336Z,2.93
2019-02-08T06:54:17.311Z,2.82
2019-02-08T06:55:17.287Z,2.92
2019-02-08T06:56:17.263Z,2.85
2019-02-08T06:57:17.245Z,2.85
2019-02-08T06:58:17.227Z,2.92
2019-02-08T06:59:17.197Z,2.89
2019-02-08T07:00:17.178Z,2.89
2019-02-08T07:01:17.146Z,2.84
2019-02-08T07:02:17.121Z,2.96
2019-02-08T07:03:17.101Z,2.93
2019-02-08T07:04:17.074Z,2.95
2019-02-08T07:05:17.051Z,2.97
2019-02-08T07:06:17.030Z,2.95
2019-02-08T07:07:17.001Z,2.97
2019-02-08T07:08:16.985Z,2.97
2019-02-08T07:09:16.954Z,3.11
2019-02-08T07:10:16.931Z,3.06
2019-02-08T07:11:16.909Z,3.20
2019-02-08T07:12:16.885Z,3.18
2019-02-08T07:13:16.857Z,3.17
2019-02-08T07:14:16.841Z,3.26
2019-02-08T07:15:16.815Z,3.26
2019-02-08T07:16:16.794Z,3.31
2019-02-08T07:17:16.768Z,3.36
2019-02-08T07:18:16.742Z,3.42
2019-02-08T07:19:16.719Z,3.45
2019-02-08T07:20:16.691Z,3.48
2019-02-08T07:21:16.670Z,3.51
2019-02-08T07:22:16.652Z,3.54
2019-02-08T07:23:16.628Z,3.55
2019-02-08T07:24:16.602Z,3.61
2019-02-08T07:25:18.637Z,3.61
2019-02-08T07:26:16.554Z,3.68
2019-02-08T07:27:16.532Z,3.75
2019-02-08T07:28:16.507Z,3.83
2019-02-08T07:29:16.478Z,3.83
2019-02-08T07:30:16.458Z,3.93
2019-02-08T07:31:16.435Z,3.90
2019-02-08T07:32:16.419Z,3.96
2019-02-08T07:33:16.390Z,3.90
2019-02-08T07:34:16.371Z,3.88
2019-02-08T07:35:16.340Z,3.86
2019-02-08T07:36:16.318Z,3.90
2019-02-08T07:37:16.295Z,4.00
2019-02-08T07:38:16.274Z,4.08
2019-02-08T07:39:16.249Z,4.02
2019-02-08T07:40:16.221Z,4.16
2019-02-08T07:41:16.198Z,4.15
2019-02-08T07:42:16.174Z,4.24
2019-02-08T07:43:16.153Z,4.32
2019-02-08T07:44:16.130Z,4.32
2019-02-08T07:45:16.112Z,4.29
2019-02-08T07:46:16.082Z,4.42
2019-02-08T07:47:16.055Z,4.47
2019-02-08T07:48:16.040Z,4.54
2019-02-08T07:49:16.010Z,4.52
2019-02-08T07:50:15.994Z,4.58
2019-02-08T07:51:15.968Z,4.60
2019-02-08T07:52:15.942Z,4.73
2019-02-08T07:53:15.917Z,4.80
2019-02-08T07:54:15.897Z,4.88
2019-02-08T07:55:15.869Z,5.03
2019-02-08T07:56:15.846Z,5.13
2019-02-08T07:57:15.822Z,5.38
2019-02-08T07:58:15.802Z,5.78
2019-02-08T07:59:15.774Z,6.04
2019-02-08T08:00:15.756Z,6.25
2019-02-08T08:01:15.732Z,6.28
2019-02-08T08:02:15.706Z,6.34
2019-02-08T08:03:15.688Z,6.19
2019-02-08T08:04:15.663Z,6.19
2019-02-08T08:05:15.638Z,6.36
2019-02-08T08:06:15.618Z,6.38
2019-02-08T08:07:15.599Z,6.54
2019-02-08T08:08:15.569Z,6.56
2019-02-08T08:09:15.548Z,6.51
2019-02-08T08:10:15.524Z,6.52
2019-02-08T08:11:15.500Z,6.43
2019-02-08T08:12:15.479Z,6.55
2019-02-08T08:13:15.456Z,6.48
2019-02-08T08:14:15.434Z,6.49
2019-02-08T08:15:15.416Z,6.59
2019-02-08T08:16:15.388Z,6.92
2019-02-08T08:17:15.368Z,6.94
2019-02-08T08:18:15.342Z,7.24
2019-02-08T08:19:15.976Z,7.40
2019-02-08T08:20:15.296Z,7.43
2019-02-08T08:21:15.278Z,7.16
2019-02-08T08:22:15.255Z,7.07
2019-02-08T08:23:15.231Z,7.32
2019-02-08T08:24:15.214Z,7.30
2019-02-08T08:25:15.191Z,7.15
2019-02-08T08:26:15.166Z,6.97
2019-02-08T08:27:15.144Z,6.71
2019-02-08T08:28:15.118Z,6.56
2019-02-08T08:29:15.100Z,6.56
2019-02-08T08:30:15.085Z,6.71
2019-02-08T08:31:15.055Z,6.67
2019-02-08T08:32:15.036Z,6.59
2019-02-08T08:33:15.009Z,6.64
2019-02-08T08:34:14.993Z,6.54
2019-02-08T08:35:14.966Z,6.99
2019-02-08T08:36:14.948Z,7.45
2019-02-08T08:37:14.932Z,7.49
2019-02-08T08:38:14.903Z,7.48
2019-02-08T08:39:14.892Z,7.58
2019-02-08T08:40:14.861Z,7.55
2019-02-08T08:41:14.887Z,7.55
2019-02-08T08:42:14.815Z,7.87
2019-02-08T08:43:15.230Z,8.23
2019-02-08T08:44:14.781Z,8.56
2019-02-08T08:45:14.755Z,8.89
2019-02-08T08:46:14.729Z,9.17
2019-02-08T08:47:14.712Z,9.20
2019-02-08T08:48:14.682Z,9.14
2019-02-08T08:49:14.666Z,8.71
2019-02-08T08:50:14.644Z,8.77
2019-02-08T08:51:14.619Z,8.83
2019-02-08T08:52:14.604Z,8.47
2019-02-08T08:53:14.577Z,8.26
2019-02-08T08:54:14.563Z,8.15
2019-02-08T08:55:14.551Z,7.97
2019-02-08T08:56:14.513Z,7.89
2019-02-08T08:57:14.498Z,7.87
2019-02-08T08:58:14.477Z,7.53
2019-02-08T08:59:14.451Z,7.52
2019-02-08T09:00:14.436Z,7.46
2019-02-08T09:01:14.410Z,7.49
2019-02-08T09:02:14.388Z,7.43
2019-02-08T09:03:14.368Z,7.34
2019-02-08T09:04:14.349Z,7.27
2019-02-08T09:05:14.328Z,7.31
2019-02-08T09:06:14.306Z,7.31
2019-02-08T09:07:16.227Z,7.27
2019-02-08T09:08:14.264Z,7.23
2019-02-08T09:09:14.242Z,7.37
2019-02-08T09:10:14.221Z,7.53
2019-02-08T09:11:14.199Z,7.46
2019-02-08T09:12:14.179Z,7.43
2019-02-08T09:13:15.020Z,7.55
2019-02-08T09:14:14.139Z,7.52
2019-02-08T09:15:14.168Z,7.35
2019-02-08T09:16:14.096Z,7.40
2019-02-08T09:17:14.076Z,7.39
2019-02-08T09:18:14.053Z,7.53
2019-02-08T09:19:14.031Z,7.71
2019-02-08T09:20:14.013Z,7.83
2019-02-08T09:21:13.988Z,7.85
2019-02-08T09:22:13.975Z,7.90
2019-02-08T09:23:13.943Z,7.83
2019-02-08T09:24:13.937Z,8.01
2019-02-08T09:25:13.913Z,8.26
2019-02-08T09:26:13.885Z,8.34
2019-02-08T09:27:13.863Z,8.50
2019-02-08T09:28:13.839Z,8.52
2019-02-08T09:29:13.822Z,8.58
2019-02-08T09:30:13.797Z,8.71
2019-02-08T09:31:13.783Z,8.43
2019-02-08T09:32:13.756Z,8.52
2019-02-08T09:33:13.745Z,8.70
2019-02-08T09:34:13.720Z,9.14
2019-02-08T09:35:13.693Z,9.36
2019-02-08T09:36:13.677Z,9.33
2019-02-08T09:37:13.655Z,10.09
2019-02-08T09:38:13.646Z,11.17
2019-02-08T09:39:13.616Z,11.51
2019-02-08T09:40:13.594Z,12.20
2019-02-08T09:41:13.578Z,12.68
2019-02-08T09:42:13.552Z,12.70
2019-02-08T09:43:13.534Z,12.89
2019-02-08T09:44:13.514Z,13.00
2019-02-08T09:45:14.740Z,13.25
2019-02-08T09:46:13.477Z,13.52
2019-02-08T09:47:13.465Z,13.79
2019-02-08T09:48:13.440Z,13.36
2019-02-08T09:49:13.425Z,12.95
2019-02-08T09:50:13.400Z,12.89
2019-02-08T09:51:13.385Z,13.26
2019-02-08T09:52:13.368Z,13.30
2019-02-08T09:53:13.350Z,13.59
2019-02-08T09:54:13.336Z,14.10
2019-02-08T09:55:13.319Z,14.72
2019-02-08T09:56:13.295Z,14.65
2019-02-08T09:57:13.291Z,14.24
2019-02-08T09:58:13.269Z,14.32
2019-02-08T09:59:13.248Z,14.29
2019-02-08T10:00:13.232Z,14.45
2019-02-08T10:01:13.215Z,14.68
2019-02-08T10:02:13.199Z,15.02
2019-02-08T10:03:13.194Z,14.95
2019-02-08T10:04:13.171Z,14.55
2019-02-08T10:05:13.154Z,14.69
2019-02-08T10:06:13.138Z,14.83
2019-02-08T10:07:13.120Z,15.43
2019-02-08T10:08:13.113Z,15.43
2019-02-08T10:09:13.093Z,14.92
2019-02-08T10:10:13.073Z,14.46
2019-02-08T10:11:13.056Z,14.62
2019-02-08T10:12:13.041Z,14.72
2019-02-08T10:13:13.028Z,14.62
2019-02-08T10:14:13.017Z,14.35
2019-02-08T10:15:12.992Z,14.45
2019-02-08T10:16:12.982Z,14.04
2019-02-08T10:17:12.959Z,14.25
2019-02-08T10:18:12.946Z,14.15
2019-02-08T10:19:12.931Z,14.07
2019-02-08T10:20:12.916Z,14.29
2019-02-08T10:21:12.903Z,14.42
2019-02-08T10:22:12.881Z,14.42
2019-02-08T10:23:12.866Z,13.95
2019-02-08T10:24:12.853Z,13.69
2019-02-08T10:25:12.835Z,13.12
2019-02-08T10:26:12.819Z,12.90
2019-02-08T10:27:12.805Z,12.72
2019-02-08T10:28:12.786Z,12.68
2019-02-08T10:29:12.776Z,12.45
2019-02-08T10:30:12.758Z,12.53
2019-02-08T10:31:12.744Z,12.60
2019-02-08T10:32:12.722Z,12.45
2019-02-08T10:33:12.704Z,12.41
2019-02-08T10:34:12.688Z,12.34
2019-02-08T10:35:12.675Z,12.05
2019-02-08T10:36:12.656Z,11.95
2019-02-08T10:37:12.640Z,11.98
2019-02-08T10:38:12.623Z,11.79
2019-02-08T10:39:12.608Z,11.67
2019-02-08T10:40:12.592Z,11.69
2019-02-08T10:41:12.576Z,11.96
2019-02-08T10:42:12.559Z,11.99
2019-02-08T10:43:12.546Z,11.76
2019-02-08T10:44:12.525Z,11.57
2019-02-08T10:45:12.505Z,11.49
2019-02-08T10:46:12.492Z,11.42
2019-02-08T10:47:12.475Z,11.21
2019-02-08T10:48:12.454Z,11.17
2019-02-08T10:49:12.449Z,11.03
2019-02-08T10:50:12.422Z,11.00
2019-02-08T10:51:12.404Z,11.07
2019-02-08T10:52:12.392Z,11.17
2019-02-08T10:53:12.369Z,11.32
2019-02-08T10:54:12.359Z,11.27
2019-02-08T10:55:12.340Z,11.24
2019-02-08T10:56:15.062Z,11.33
2019-02-08T10:57:12.301Z,11.51
2019-02-08T10:58:12.293Z,11.54
2019-02-08T10:59:12.270Z,11.67
2019-02-08T11:00:12.250Z,11.60
2019-02-08T11:01:12.235Z,11.44
2019-02-08T11:02:12.222Z,11.28
2019-02-08T11:03:12.243Z,11.29
2019-02-08T11:04:12.189Z,11.44
2019-02-08T11:05:12.176Z,11.58
2019-02-08T11:06:12.164Z,11.75
2019-02-08T11:07:12.137Z,11.72
2019-02-08T11:08:12.121Z,11.85
2019-02-08T11:09:12.102Z,12.04
2019-02-08T11:10:12.083Z,12.16
2019-02-08T11:11:12.073Z,12.10
2019-02-08T11:12:12.067Z,11.88
2019-02-08T11:13:12.075Z,11.76
2019-02-08T11:14:12.021Z,11.69
2019-02-08T11:15:11.998Z,11.37
2019-02-08T11:16:11.985Z,11.19
2019-02-08T11:17:11.970Z,11.03
2019-02-08T11:18:11.958Z,10.89
2019-02-08T11:19:11.937Z,10.91
2019-02-08T11:20:11.952Z,11.14
2019-02-08T11:21:11.899Z,11.07
2019-02-08T11:22:11.887Z,10.92
2019-02-08T11:23:11.863Z,10.74
2019-02-08T11:24:11.851Z,10.86
2019-02-08T11:25:11.834Z,10.89
2019-02-08T11:26:11.816Z,10.89
2019-02-08T11:27:11.798Z,10.96
2019-02-08T11:28:11.783Z,10.99
2019-02-08T11:29:11.770Z,10.97
2019-02-08T11:30:11.749Z,11.11
2019-02-08T11:31:11.733Z,11.19
2019-02-08T11:32:11.716Z,11.25
2019-02-08T11:33:11.697Z,11.35
2019-02-08T11:34:11.684Z,11.19
2019-02-08T11:35:11.664Z,11.15
2019-02-08T11:36:11.649Z,11.14
2019-02-08T11:37:11.631Z,11.04
2019-02-08T11:38:11.618Z,11.07
2019-02-08T11:39:11.595Z,11.06
2019-02-08T11:40:11.578Z,11.00
2019-02-08T11:41:11.563Z,11.03
2019-02-08T11:42:11.545Z,11.04
2019-02-08T11:43:11.525Z,11.15
2019-02-08T11:44:11.505Z,11.33
2019-02-08T11:45:11.493Z,11.46
2019-02-08T11:46:11.476Z,11.44
2019-02-08T11:47:11.463Z,11.44
2019-02-08T11:48:11.437Z,11.28
2019-02-08T11:49:11.421Z,11.22
2019-02-08T11:50:11.405Z,11.21
2019-02-08T11:51:11.388Z,11.35
2019-02-08T11:52:11.373Z,11.47
2019-02-08T11:53:11.359Z,11.61
2019-02-08T11:54:11.343Z,11.61
2019-02-08T11:55:11.323Z,11.58
2019-02-08T11:56:11.305Z,11.47
2019-02-08T11:57:11.285Z,11.51
2019-02-08T11:58:11.274Z,11.46
2019-02-08T11:59:11.255Z,11.60
2019-02-08T12:00:11.237Z,11.79
2019-02-08T12:01:11.217Z,12.13
2019-02-08T12:02:11.203Z,12.04
2019-02-08T12:03:11.185Z,12.09
2019-02-08T12:04:11.166Z,11.88
2019-02-08T12:05:11.151Z,12.09
2019-02-08T12:06:11.139Z,11.98
2019-02-08T12:07:11.113Z,11.85
2019-02-08T12:08:11.101Z,11.91
2019-02-08T12:09:11.083Z,11.96
2019-02-08T12:10:11.068Z,11.91
2019-02-08T12:11:11.051Z,11.83
2019-02-08T12:12:11.034Z,11.69
2019-02-08T12:13:11.018Z,11.69
2019-02-08T12:14:11.011Z,11.57
2019-02-08T12:15:10.990Z,11.46
2019-02-08T12:16:10.966Z,11.28
2019-02-08T12:17:10.955Z,11.21
2019-02-08T12:18:10.933Z,11.17
2019-02-08T12:19:10.915Z,11.04
2019-02-08T12:20:10.897Z,10.91
2019-02-08T12:21:10.881Z,10.94
2019-02-08T12:22:10.865Z,10.94
2019-02-08T12:23:10.853Z,10.92
2019-02-08T12:24:10.832Z,10.91
2019-02-08T12:25:10.818Z,10.84
2019-02-08T12:26:10.803Z,10.85
2019-02-08T12:27:10.778Z,10.79
2019-02-08T12:28:10.760Z,10.71
2019-02-08T12:29:10.752Z,10.84
2019-02-08T12:30:10.727Z,10.74
2019-02-08T12:31:10.720Z,10.76
2019-02-08T12:32:10.692Z,10.71
2019-02-08T12:33:10.675Z,10.78
2019-02-08T12:34:10.654Z,10.89
2019-02-08T12:35:10.640Z,10.82
2019-02-08T12:36:10.622Z,10.86
2019-02-08T12:37:10.606Z,10.92
2019-02-08T12:38:10.589Z,10.82
2019-02-08T12:39:10.572Z,10.73
2019-02-08T12:40:10.554Z,10.74
2019-02-08T12:41:10.537Z,10.61
2019-02-08T12:42:10.519Z,10.47
2019-02-08T12:43:10.496Z,10.38
2019-02-08T12:44:10.485Z,10.45
2019-02-08T12:45:10.461Z,10.52
2019-02-08T12:46:10.442Z,10.47
2019-02-08T12:47:10.426Z,10.56
2019-02-08T12:48:10.410Z,10.44
2019-02-08T12:49:10.394Z,10.40
2019-02-08T12:50:10.374Z,10.40
2019-02-08T12:51:10.356Z,10.34
2019-02-08T12:52:10.338Z,10.26
2019-02-08T12:53:10.319Z,10.17
2019-02-08T12:54:10.305Z,10.23
2019-02-08T12:55:10.281Z,10.25
2019-02-08T12:56:10.266Z,10.18
2019-02-08T12:57:10.245Z,10.23
2019-02-08T12:58:10.225Z,10.22
2019-02-08T12:59:10.207Z,10.22
2019-02-08T13:00:10.192Z,10.23
2019-02-08T13:01:10.176Z,10.23
2019-02-08T13:02:10.159Z,10.38
2019-02-08T13:03:10.134Z,10.38
2019-02-08T13:04:10.120Z,10.25
2019-02-08T13:05:10.140Z,10.25
2019-02-08T13:06:10.079Z,10.34
2019-02-08T13:07:10.406Z,10.23
2019-02-08T13:08:10.043Z,10.32
2019-02-08T13:09:10.023Z,10.27
2019-02-08T13:10:10.007Z,10.32
2019-02-08T13:11:09.988Z,10.36